sensor_id;sensor_type;location;lat;lon;timestamp;temperature;humidity
55091;DHT22;40985;53.180;5.800;2023-04-24T00:01:42;10.10;99.90
55091;DHT22;40985;53.180;5.800;2023-04-24T00:04:08;10.10;99.90
55091;DHT22;40985;53.180;5.800;2023-04-24T00:06:37;10.00;99.90
55091;DHT22;40985;53.180;5.800;2023-04-24T00:09:03;10.20;99.90
55091;DHT22;40985;53.180;5.800;2023-04-24T00:11:30;10.20;99.90
55091;DHT22;40985;53.180;5.800;2023-04-24T00:13:56;10.00;99.90
55091;DHT22;40985;53.180;5.800;2023-04-24T00:16:22;10.00;99.90
55091;DHT22;40985;53.180;5.800;2023-04-24T00:18:48;10.10;99.90
55091;DHT22;40985;53.180;5.800;2023-04-24T00:21:15;10.10;99.90
55091;DHT22;40985;53.180;5.800;2023-04-24T00:23:43;10.20;99.90
55091;DHT22;40985;53.180;5.800;2023-04-24T00:26:09;10.20;99.90
55091;DHT22;40985;53.180;5.800;2023-04-24T00:28:35;10.20;99.90
55091;DHT22;40985;53.180;5.800;2023-04-24T00:31:01;10.20;99.90
55091;DHT22;40985;53.180;5.800;2023-04-24T00:33:27;10.20;99.90
55091;DHT22;40985;53.180;5.800;2023-04-24T00:35:52;10.10;99.90
55091;DHT22;40985;53.180;5.800;2023-04-24T00:38:18;10.20;99.90
55091;DHT22;40985;53.180;5.800;2023-04-24T00:40:44;10.10;99.90
55091;DHT22;40985;53.180;5.800;2023-04-24T00:43:10;10.10;99.90
55091;DHT22;40985;53.180;5.800;2023-04-24T00:45:36;10.30;99.90
55091;DHT22;40985;53.180;5.800;2023-04-24T00:48:02;10.20;99.90
55091;DHT22;40985;53.180;5.800;2023-04-24T00:50:28;10.20;99.90
55091;DHT22;40985;53.180;5.800;2023-04-24T00:52:54;10.30;99.90
55091;DHT22;40985;53.180;5.800;2023-04-24T00:55:20;10.30;99.90
55091;DHT22;40985;53.180;5.800;2023-04-24T00:57:46;10.20;99.90
55091;DHT22;40985;53.180;5.800;2023-04-24T01:00:13;10.20;99.90
55091;DHT22;40985;53.180;5.800;2023-04-24T01:02:40;10.20;99.90
55091;DHT22;40985;53.180;5.800;2023-04-24T01:05:09;10.30;99.90
55091;DHT22;40985;53.180;5.800;2023-04-24T01:07:35;10.20;99.90
55091;DHT22;40985;53.180;5.800;2023-04-24T01:10:02;10.40;99.90
55091;DHT22;40985;53.180;5.800;2023-04-24T01:12:28;10.30;99.90
55091;DHT22;40985;53.180;5.800;2023-04-24T01:14:54;10.20;99.90
55091;DHT22;40985;53.180;5.800;2023-04-24T01:17:22;10.30;99.90
55091;DHT22;40985;53.180;5.800;2023-04-24T01:19:47;10.20;99.90
55091;DHT22;40985;53.180;5.800;2023-04-24T01:22:14;10.30;99.90
55091;DHT22;40985;53.180;5.800;2023-04-24T01:24:41;10.30;99.90
55091;DHT22;40985;53.180;5.800;2023-04-24T01:27:07;10.20;99.90
55091;DHT22;40985;53.180;5.800;2023-04-24T01:29:34;10.30;99.90
55091;DHT22;40985;53.180;5.800;2023-04-24T01:32:00;10.30;99.90
55091;DHT22;40985;53.180;5.800;2023-04-24T01:34:26;10.30;99.90
55091;DHT22;40985;53.180;5.800;2023-04-24T01:36:52;10.20;99.90
55091;DHT22;40985;53.180;5.800;2023-04-24T01:39:18;10.30;99.90
55091;DHT22;40985;53.180;5.800;2023-04-24T01:41:46;10.30;99.90
55091;DHT22;40985;53.180;5.800;2023-04-24T01:44:12;10.30;99.90
55091;DHT22;40985;53.180;5.800;2023-04-24T01:46:38;10.20;99.90
55091;DHT22;40985;53.180;5.800;2023-04-24T01:49:03;10.30;99.90
55091;DHT22;40985;53.180;5.800;2023-04-24T01:51:29;10.20;99.90
55091;DHT22;40985;53.180;5.800;2023-04-24T01:53:55;10.20;99.90
55091;DHT22;40985;53.180;5.800;2023-04-24T01:56:22;10.30;99.90
55091;DHT22;40985;53.180;5.800;2023-04-24T01:58:49;10.20;99.90
55091;DHT22;40985;53.180;5.800;2023-04-24T02:01:20;10.20;99.90
55091;DHT22;40985;53.180;5.800;2023-04-24T02:03:46;10.30;99.90
55091;DHT22;40985;53.180;5.800;2023-04-24T02:06:11;10.20;99.90
55091;DHT22;40985;53.180;5.800;2023-04-24T02:08:37;10.30;99.90
55091;DHT22;40985;53.180;5.800;2023-04-24T02:11:02;10.30;99.90
55091;DHT22;40985;53.180;5.800;2023-04-24T02:13:28;10.20;99.90
55091;DHT22;40985;53.180;5.800;2023-04-24T02:15:54;10.20;99.90
55091;DHT22;40985;53.180;5.800;2023-04-24T02:18:20;10.20;99.90
55091;DHT22;40985;53.180;5.800;2023-04-24T02:20:46;10.20;99.90
55091;DHT22;40985;53.180;5.800;2023-04-24T02:23:11;10.20;99.90
55091;DHT22;40985;53.180;5.800;2023-04-24T02:25:38;10.30;99.90
55091;DHT22;40985;53.180;5.800;2023-04-24T02:28:04;10.20;99.90
55091;DHT22;40985;53.180;5.800;2023-04-24T02:30:30;10.00;99.90
55091;DHT22;40985;53.180;5.800;2023-04-24T02:32:56;9.80;99.90
55091;DHT22;40985;53.180;5.800;2023-04-24T02:35:21;9.80;99.90
55091;DHT22;40985;53.180;5.800;2023-04-24T02:37:47;9.70;99.90
55091;DHT22;40985;53.180;5.800;2023-04-24T02:40:13;9.70;99.90
55091;DHT22;40985;53.180;5.800;2023-04-24T02:42:38;9.70;99.90
55091;DHT22;40985;53.180;5.800;2023-04-24T02:45:04;9.50;99.90
55091;DHT22;40985;53.180;5.800;2023-04-24T02:47:30;9.60;99.90
55091;DHT22;40985;53.180;5.800;2023-04-24T02:49:56;9.50;99.90
55091;DHT22;40985;53.180;5.800;2023-04-24T02:52:21;9.40;99.90
55091;DHT22;40985;53.180;5.800;2023-04-24T02:54:47;9.50;99.90
55091;DHT22;40985;53.180;5.800;2023-04-24T02:57:13;9.40;99.90
55091;DHT22;40985;53.180;5.800;2023-04-24T02:59:38;9.50;99.90
55091;DHT22;40985;53.180;5.800;2023-04-24T03:02:04;9.30;99.90
55091;DHT22;40985;53.180;5.800;2023-04-24T03:04:31;9.50;99.90
55091;DHT22;40985;53.180;5.800;2023-04-24T03:06:57;9.30;99.90
55091;DHT22;40985;53.180;5.800;2023-04-24T03:09:23;9.40;99.90
55091;DHT22;40985;53.180;5.800;2023-04-24T03:11:49;9.40;99.90
55091;DHT22;40985;53.180;5.800;2023-04-24T03:14:15;9.50;99.90
55091;DHT22;40985;53.180;5.800;2023-04-24T03:16:41;9.40;99.90
55091;DHT22;40985;53.180;5.800;2023-04-24T03:19:07;9.50;99.90
55091;DHT22;40985;53.180;5.800;2023-04-24T03:21:33;9.30;99.90
55091;DHT22;40985;53.180;5.800;2023-04-24T03:23:58;9.40;99.90
55091;DHT22;40985;53.180;5.800;2023-04-24T03:26:24;9.30;99.90
55091;DHT22;40985;53.180;5.800;2023-04-24T03:28:50;9.40;99.90
55091;DHT22;40985;53.180;5.800;2023-04-24T03:31:16;9.40;99.90
55091;DHT22;40985;53.180;5.800;2023-04-24T03:33:42;9.40;99.90
55091;DHT22;40985;53.180;5.800;2023-04-24T03:36:08;9.40;99.90
55091;DHT22;40985;53.180;5.800;2023-04-24T03:38:33;9.30;99.90
55091;DHT22;40985;53.180;5.800;2023-04-24T03:40:59;9.30;99.90
55091;DHT22;40985;53.180;5.800;2023-04-24T03:43:25;9.30;99.90
55091;DHT22;40985;53.180;5.800;2023-04-24T03:45:52;9.20;99.90
55091;DHT22;40985;53.180;5.800;2023-04-24T03:48:18;9.10;99.90
55091;DHT22;40985;53.180;5.800;2023-04-24T03:50:44;9.10;99.90
55091;DHT22;40985;53.180;5.800;2023-04-24T03:53:10;9.30;99.90
55091;DHT22;40985;53.180;5.800;2023-04-24T03:55:35;9.30;99.90
55091;DHT22;40985;53.180;5.800;2023-04-24T03:58:01;9.20;99.90
55091;DHT22;40985;53.180;5.800;2023-04-24T04:00:27;9.20;99.90
55091;DHT22;40985;53.180;5.800;2023-04-24T04:02:53;9.20;99.90
55091;DHT22;40985;53.180;5.800;2023-04-24T04:05:18;9.10;99.90
55091;DHT22;40985;53.180;5.800;2023-04-24T04:07:45;9.10;99.90
55091;DHT22;40985;53.180;5.800;2023-04-24T04:10:10;9.20;99.90
55091;DHT22;40985;53.180;5.800;2023-04-24T04:12:36;9.10;99.90
55091;DHT22;40985;53.180;5.800;2023-04-24T04:15:03;9.00;99.90
55091;DHT22;40985;53.180;5.800;2023-04-24T04:17:30;9.10;99.90
55091;DHT22;40985;53.180;5.800;2023-04-24T04:19:55;8.90;99.90
55091;DHT22;40985;53.180;5.800;2023-04-24T04:22:21;9.10;99.90
55091;DHT22;40985;53.180;5.800;2023-04-24T04:24:47;9.10;99.90
55091;DHT22;40985;53.180;5.800;2023-04-24T04:27:13;9.00;99.90
55091;DHT22;40985;53.180;5.800;2023-04-24T04:29:38;9.10;99.90
55091;DHT22;40985;53.180;5.800;2023-04-24T04:32:05;9.00;99.90
55091;DHT22;40985;53.180;5.800;2023-04-24T04:34:31;9.10;99.90
55091;DHT22;40985;53.180;5.800;2023-04-24T04:36:57;9.10;99.90
55091;DHT22;40985;53.180;5.800;2023-04-24T04:39:26;8.90;99.90
55091;DHT22;40985;53.180;5.800;2023-04-24T04:41:53;9.00;99.90
55091;DHT22;40985;53.180;5.800;2023-04-24T04:44:19;8.90;99.90
55091;DHT22;40985;53.180;5.800;2023-04-24T04:46:45;8.90;99.90
55091;DHT22;40985;53.180;5.800;2023-04-24T04:49:10;8.90;99.90
55091;DHT22;40985;53.180;5.800;2023-04-24T04:51:36;8.90;99.90
55091;DHT22;40985;53.180;5.800;2023-04-24T04:54:02;8.90;99.90
55091;DHT22;40985;53.180;5.800;2023-04-24T04:56:27;8.90;99.90
55091;DHT22;40985;53.180;5.800;2023-04-24T04:58:53;8.90;99.90
55091;DHT22;40985;53.180;5.800;2023-04-24T05:01:19;9.00;99.90
55091;DHT22;40985;53.180;5.800;2023-04-24T05:03:45;9.00;99.90
55091;DHT22;40985;53.180;5.800;2023-04-24T05:06:10;8.90;99.90
55091;DHT22;40985;53.180;5.800;2023-04-24T05:08:36;8.90;99.90
55091;DHT22;40985;53.180;5.800;2023-04-24T05:11:02;9.00;99.90
55091;DHT22;40985;53.180;5.800;2023-04-24T05:13:27;8.90;99.90
55091;DHT22;40985;53.180;5.800;2023-04-24T05:15:53;8.90;99.90
55091;DHT22;40985;53.180;5.800;2023-04-24T05:18:19;9.00;99.90
55091;DHT22;40985;53.180;5.800;2023-04-24T05:20:44;8.90;99.90
55091;DHT22;40985;53.180;5.800;2023-04-24T05:23:10;9.00;99.90
55091;DHT22;40985;53.180;5.800;2023-04-24T05:25:37;8.90;99.90
55091;DHT22;40985;53.180;5.800;2023-04-24T05:28:04;8.90;99.90
55091;DHT22;40985;53.180;5.800;2023-04-24T05:30:31;9.00;99.90
55091;DHT22;40985;53.180;5.800;2023-04-24T05:32:56;8.90;99.90
55091;DHT22;40985;53.180;5.800;2023-04-24T05:35:22;8.80;99.90
55091;DHT22;40985;53.180;5.800;2023-04-24T05:37:48;8.90;99.90
55091;DHT22;40985;53.180;5.800;2023-04-24T05:40:13;8.90;99.90
55091;DHT22;40985;53.180;5.800;2023-04-24T05:42:39;8.90;99.90
55091;DHT22;40985;53.180;5.800;2023-04-24T05:45:05;8.90;99.90
55091;DHT22;40985;53.180;5.800;2023-04-24T05:47:31;8.90;99.90
55091;DHT22;40985;53.180;5.800;2023-04-24T05:49:57;8.90;99.90
55091;DHT22;40985;53.180;5.800;2023-04-24T05:52:22;8.90;99.90
55091;DHT22;40985;53.180;5.800;2023-04-24T05:54:48;8.90;99.90
55091;DHT22;40985;53.180;5.800;2023-04-24T05:57:14;8.80;99.90
55091;DHT22;40985;53.180;5.800;2023-04-24T05:59:40;8.90;99.90
55091;DHT22;40985;53.180;5.800;2023-04-24T06:02:07;9.00;99.90
55091;DHT22;40985;53.180;5.800;2023-04-24T06:04:33;8.90;99.90
55091;DHT22;40985;53.180;5.800;2023-04-24T06:06:59;8.80;99.90
55091;DHT22;40985;53.180;5.800;2023-04-24T06:09:25;8.80;99.90
55091;DHT22;40985;53.180;5.800;2023-04-24T06:11:51;8.80;99.90
55091;DHT22;40985;53.180;5.800;2023-04-24T06:14:20;8.80;99.90
55091;DHT22;40985;53.180;5.800;2023-04-24T06:16:46;8.80;99.90
55091;DHT22;40985;53.180;5.800;2023-04-24T06:19:12;8.80;99.90
55091;DHT22;40985;53.180;5.800;2023-04-24T06:21:38;8.60;99.90
55091;DHT22;40985;53.180;5.800;2023-04-24T06:24:03;8.70;99.90
55091;DHT22;40985;53.180;5.800;2023-04-24T06:26:30;8.60;99.90
55091;DHT22;40985;53.180;5.800;2023-04-24T06:28:56;8.70;99.90
55091;DHT22;40985;53.180;5.800;2023-04-24T06:31:22;8.70;99.90
55091;DHT22;40985;53.180;5.800;2023-04-24T06:33:48;8.60;99.90
55091;DHT22;40985;53.180;5.800;2023-04-24T06:36:14;8.70;99.90
55091;DHT22;40985;53.180;5.800;2023-04-24T06:38:41;8.50;99.90
55091;DHT22;40985;53.180;5.800;2023-04-24T06:41:07;8.50;99.90
55091;DHT22;40985;53.180;5.800;2023-04-24T06:43:33;8.50;99.90
55091;DHT22;40985;53.180;5.800;2023-04-24T06:45:59;8.40;99.90
55091;DHT22;40985;53.180;5.800;2023-04-24T06:48:25;8.40;99.90
55091;DHT22;40985;53.180;5.800;2023-04-24T06:50:52;8.30;99.90
55091;DHT22;40985;53.180;5.800;2023-04-24T06:53:17;8.30;99.90
55091;DHT22;40985;53.180;5.800;2023-04-24T06:55:43;8.30;99.90
55091;DHT22;40985;53.180;5.800;2023-04-24T06:58:11;8.40;99.90
55091;DHT22;40985;53.180;5.800;2023-04-24T07:00:37;8.40;99.90
55091;DHT22;40985;53.180;5.800;2023-04-24T07:03:03;8.40;99.90
55091;DHT22;40985;53.180;5.800;2023-04-24T07:05:31;8.30;99.90
55091;DHT22;40985;53.180;5.800;2023-04-24T07:07:56;8.30;99.90
55091;DHT22;40985;53.180;5.800;2023-04-24T07:10:24;8.30;99.90
55091;DHT22;40985;53.180;5.800;2023-04-24T07:12:50;8.30;99.90
55091;DHT22;40985;53.180;5.800;2023-04-24T07:15:15;8.30;99.90
55091;DHT22;40985;53.180;5.800;2023-04-24T07:17:41;8.30;99.90
55091;DHT22;40985;53.180;5.800;2023-04-24T07:20:11;8.30;99.90
55091;DHT22;40985;53.180;5.800;2023-04-24T07:22:40;8.30;99.90
55091;DHT22;40985;53.180;5.800;2023-04-24T07:25:07;8.30;99.90
55091;DHT22;40985;53.180;5.800;2023-04-24T07:27:34;8.20;99.90
55091;DHT22;40985;53.180;5.800;2023-04-24T07:30:00;8.20;99.90
55091;DHT22;40985;53.180;5.800;2023-04-24T07:32:26;8.30;99.90
55091;DHT22;40985;53.180;5.800;2023-04-24T07:34:51;8.20;99.90
55091;DHT22;40985;53.180;5.800;2023-04-24T07:37:17;8.20;99.90
55091;DHT22;40985;53.180;5.800;2023-04-24T07:39:43;8.20;99.90
55091;DHT22;40985;53.180;5.800;2023-04-24T07:42:09;8.30;99.90
55091;DHT22;40985;53.180;5.800;2023-04-24T07:44:34;8.30;99.90
55091;DHT22;40985;53.180;5.800;2023-04-24T07:47:01;8.30;99.90
55091;DHT22;40985;53.180;5.800;2023-04-24T07:49:27;8.30;99.90
55091;DHT22;40985;53.180;5.800;2023-04-24T07:51:53;8.40;99.90
55091;DHT22;40985;53.180;5.800;2023-04-24T07:54:19;8.40;99.90
55091;DHT22;40985;53.180;5.800;2023-04-24T07:56:44;8.50;99.90
55091;DHT22;40985;53.180;5.800;2023-04-24T07:59:10;8.50;99.90
55091;DHT22;40985;53.180;5.800;2023-04-24T08:01:36;8.50;99.90
55091;DHT22;40985;53.180;5.800;2023-04-24T08:04:02;8.60;99.90
55091;DHT22;40985;53.180;5.800;2023-04-24T08:06:28;8.60;99.90
55091;DHT22;40985;53.180;5.800;2023-04-24T08:08:59;8.80;99.90
55091;DHT22;40985;53.180;5.800;2023-04-24T08:11:26;8.80;99.90
55091;DHT22;40985;53.180;5.800;2023-04-24T08:13:51;8.80;99.90
55091;DHT22;40985;53.180;5.800;2023-04-24T08:16:17;8.80;99.90
55091;DHT22;40985;53.180;5.800;2023-04-24T08:18:43;8.80;99.90
55091;DHT22;40985;53.180;5.800;2023-04-24T08:21:08;8.80;99.90
55091;DHT22;40985;53.180;5.800;2023-04-24T08:23:34;8.70;99.90
55091;DHT22;40985;53.180;5.800;2023-04-24T08:26:00;8.70;99.90
55091;DHT22;40985;53.180;5.800;2023-04-24T08:28:25;8.70;99.90
55091;DHT22;40985;53.180;5.800;2023-04-24T08:30:51;8.70;99.90
55091;DHT22;40985;53.180;5.800;2023-04-24T08:33:23;8.70;99.90
55091;DHT22;40985;53.180;5.800;2023-04-24T08:35:49;8.80;99.90
55091;DHT22;40985;53.180;5.800;2023-04-24T08:38:16;8.90;99.90
55091;DHT22;40985;53.180;5.800;2023-04-24T08:40:42;8.90;99.90
55091;DHT22;40985;53.180;5.800;2023-04-24T08:43:08;9.00;99.90
55091;DHT22;40985;53.180;5.800;2023-04-24T08:45:36;9.00;99.90
55091;DHT22;40985;53.180;5.800;2023-04-24T08:48:02;9.10;99.90
55091;DHT22;40985;53.180;5.800;2023-04-24T08:50:29;9.10;99.90
55091;DHT22;40985;53.180;5.800;2023-04-24T08:52:57;9.30;99.90
55091;DHT22;40985;53.180;5.800;2023-04-24T08:55:23;9.30;99.90
55091;DHT22;40985;53.180;5.800;2023-04-24T08:57:51;9.50;99.90
55091;DHT22;40985;53.180;5.800;2023-04-24T09:00:20;9.70;99.90
55091;DHT22;40985;53.180;5.800;2023-04-24T09:02:49;9.70;99.90
55091;DHT22;40985;53.180;5.800;2023-04-24T09:05:17;9.70;99.90
55091;DHT22;40985;53.180;5.800;2023-04-24T09:07:45;9.70;99.90
55091;DHT22;40985;53.180;5.800;2023-04-24T09:10:14;9.60;99.90
55091;DHT22;40985;53.180;5.800;2023-04-24T09:12:41;9.70;99.90
55091;DHT22;40985;53.180;5.800;2023-04-24T09:15:08;10.00;99.90
55091;DHT22;40985;53.180;5.800;2023-04-24T09:17:34;9.70;99.90
55091;DHT22;40985;53.180;5.800;2023-04-24T09:20:01;9.70;99.90
55091;DHT22;40985;53.180;5.800;2023-04-24T09:22:30;9.50;99.90
55091;DHT22;40985;53.180;5.800;2023-04-24T09:25:06;9.50;99.90
55091;DHT22;40985;53.180;5.800;2023-04-24T09:27:33;9.50;99.90
55091;DHT22;40985;53.180;5.800;2023-04-24T09:30:00;9.50;99.90
55091;DHT22;40985;53.180;5.800;2023-04-24T09:32:27;9.50;99.90
55091;DHT22;40985;53.180;5.800;2023-04-24T09:35:14;9.50;99.90
55091;DHT22;40985;53.180;5.800;2023-04-24T09:37:46;9.70;99.90
55091;DHT22;40985;53.180;5.800;2023-04-24T09:40:20;9.60;99.90
55091;DHT22;40985;53.180;5.800;2023-04-24T09:42:55;9.50;99.90
55091;DHT22;40985;53.180;5.800;2023-04-24T09:45:26;9.50;99.90
55091;DHT22;40985;53.180;5.800;2023-04-24T09:47:52;9.60;99.90
55091;DHT22;40985;53.180;5.800;2023-04-24T09:50:21;9.50;99.90
55091;DHT22;40985;53.180;5.800;2023-04-24T09:52:57;9.30;99.90
55091;DHT22;40985;53.180;5.800;2023-04-24T09:55:24;9.20;99.90
55091;DHT22;40985;53.180;5.800;2023-04-24T09:57:56;9.20;99.90
55091;DHT22;40985;53.180;5.800;2023-04-24T10:00:29;9.20;99.90
55091;DHT22;40985;53.180;5.800;2023-04-24T10:03:03;9.20;99.90
55091;DHT22;40985;53.180;5.800;2023-04-24T10:05:33;9.30;99.90
55091;DHT22;40985;53.180;5.800;2023-04-24T10:08:09;9.30;99.90
55091;DHT22;40985;53.180;5.800;2023-04-24T10:10:39;9.40;99.90
55091;DHT22;40985;53.180;5.800;2023-04-24T10:13:07;9.60;99.90
55091;DHT22;40985;53.180;5.800;2023-04-24T10:15:33;9.70;99.90
55091;DHT22;40985;53.180;5.800;2023-04-24T10:17:59;9.70;99.90
55091;DHT22;40985;53.180;5.800;2023-04-24T10:20:28;9.80;99.90
55091;DHT22;40985;53.180;5.800;2023-04-24T10:22:57;9.80;99.90
55091;DHT22;40985;53.180;5.800;2023-04-24T10:25:26;9.70;99.90
55091;DHT22;40985;53.180;5.800;2023-04-24T10:27:53;9.80;99.90
55091;DHT22;40985;53.180;5.800;2023-04-24T10:30:19;9.80;99.90
55091;DHT22;40985;53.180;5.800;2023-04-24T10:32:45;9.80;99.90
55091;DHT22;40985;53.180;5.800;2023-04-24T10:35:13;10.00;99.90
55091;DHT22;40985;53.180;5.800;2023-04-24T10:37:48;10.10;99.90
55091;DHT22;40985;53.180;5.800;2023-04-24T10:40:19;10.00;99.90
55091;DHT22;40985;53.180;5.800;2023-04-24T10:42:52;10.20;99.90
55091;DHT22;40985;53.180;5.800;2023-04-24T10:45:22;9.90;99.90
55091;DHT22;40985;53.180;5.800;2023-04-24T10:47:58;9.80;99.90
55091;DHT22;40985;53.180;5.800;2023-04-24T10:50:27;9.60;99.90
55091;DHT22;40985;53.180;5.800;2023-04-24T10:52:55;9.60;99.90
55091;DHT22;40985;53.180;5.800;2023-04-24T10:58:24;9.40;99.90
55091;DHT22;40985;53.180;5.800;2023-04-24T11:01:00;9.30;99.90
55091;DHT22;40985;53.180;5.800;2023-04-24T11:03:31;9.00;99.90
55091;DHT22;40985;53.180;5.800;2023-04-24T11:06:07;8.90;99.90
55091;DHT22;40985;53.180;5.800;2023-04-24T11:08:43;8.80;99.90
55091;DHT22;40985;53.180;5.800;2023-04-24T11:11:15;8.80;99.90
55091;DHT22;40985;53.180;5.800;2023-04-24T11:16:35;8.60;99.90
55091;DHT22;40985;53.180;5.800;2023-04-24T11:19:02;8.70;99.90
55091;DHT22;40985;53.180;5.800;2023-04-24T11:21:55;8.60;99.90
55091;DHT22;40985;53.180;5.800;2023-04-24T11:24:48;8.70;99.90
55091;DHT22;40985;53.180;5.800;2023-04-24T11:27:18;8.80;99.90
55091;DHT22;40985;53.180;5.800;2023-04-24T11:29:48;9.00;99.90
55091;DHT22;40985;53.180;5.800;2023-04-24T11:32:19;9.10;99.90
55091;DHT22;40985;53.180;5.800;2023-04-24T11:34:51;9.20;99.90
55091;DHT22;40985;53.180;5.800;2023-04-24T11:37:17;9.10;99.90
55091;DHT22;40985;53.180;5.800;2023-04-24T11:39:43;9.00;99.90
55091;DHT22;40985;53.180;5.800;2023-04-24T11:42:09;9.00;99.90
55091;DHT22;40985;53.180;5.800;2023-04-24T11:44:36;9.10;99.90
55091;DHT22;40985;53.180;5.800;2023-04-24T11:47:05;9.20;99.90
55091;DHT22;40985;53.180;5.800;2023-04-24T11:49:36;9.30;99.90
55091;DHT22;40985;53.180;5.800;2023-04-24T11:52:03;9.40;99.90
55091;DHT22;40985;53.180;5.800;2023-04-24T11:54:29;9.50;99.90
55091;DHT22;40985;53.180;5.800;2023-04-24T11:56:56;9.60;99.90
55091;DHT22;40985;53.180;5.800;2023-04-24T11:59:21;9.70;99.90
55091;DHT22;40985;53.180;5.800;2023-04-24T12:01:48;9.80;99.90
55091;DHT22;40985;53.180;5.800;2023-04-24T12:04:15;10.00;99.90
55091;DHT22;40985;53.180;5.800;2023-04-24T12:07:01;10.10;99.90
55091;DHT22;40985;53.180;5.800;2023-04-24T12:09:27;10.30;99.90
55091;DHT22;40985;53.180;5.800;2023-04-24T12:11:56;10.20;99.90
55091;DHT22;40985;53.180;5.800;2023-04-24T12:14:22;10.10;99.90
55091;DHT22;40985;53.180;5.800;2023-04-24T12:16:49;10.10;99.90
55091;DHT22;40985;53.180;5.800;2023-04-24T12:19:22;10.10;99.90
55091;DHT22;40985;53.180;5.800;2023-04-24T12:22:00;10.10;99.90
55091;DHT22;40985;53.180;5.800;2023-04-24T12:24:26;9.90;99.90
55091;DHT22;40985;53.180;5.800;2023-04-24T12:26:51;9.80;99.90
55091;DHT22;40985;53.180;5.800;2023-04-24T12:29:21;9.90;99.90
55091;DHT22;40985;53.180;5.800;2023-04-24T12:31:47;10.00;99.90
55091;DHT22;40985;53.180;5.800;2023-04-24T12:34:23;10.10;99.90
55091;DHT22;40985;53.180;5.800;2023-04-24T12:36:50;10.00;99.90
55091;DHT22;40985;53.180;5.800;2023-04-24T12:39:19;9.60;99.90
55091;DHT22;40985;53.180;5.800;2023-04-24T12:42:11;10.10;99.90
55091;DHT22;40985;53.180;5.800;2023-04-24T12:44:37;9.80;99.90
55091;DHT22;40985;53.180;5.800;2023-04-24T12:47:03;9.90;99.90
55091;DHT22;40985;53.180;5.800;2023-04-24T12:49:32;9.90;99.90
55091;DHT22;40985;53.180;5.800;2023-04-24T12:51:58;9.80;99.90
55091;DHT22;40985;53.180;5.800;2023-04-24T12:54:24;9.90;99.90
55091;DHT22;40985;53.180;5.800;2023-04-24T12:56:50;9.80;99.90
55091;DHT22;40985;53.180;5.800;2023-04-24T12:59:16;9.70;99.90
55091;DHT22;40985;53.180;5.800;2023-04-24T13:01:41;9.50;99.90
55091;DHT22;40985;53.180;5.800;2023-04-24T13:04:07;9.80;99.90
55091;DHT22;40985;53.180;5.800;2023-04-24T13:06:33;9.50;99.90
55091;DHT22;40985;53.180;5.800;2023-04-24T13:08:58;9.40;99.90
55091;DHT22;40985;53.180;5.800;2023-04-24T13:11:24;9.20;99.90
55091;DHT22;40985;53.180;5.800;2023-04-24T13:13:50;9.20;99.90
55091;DHT22;40985;53.180;5.800;2023-04-24T13:16:16;9.20;99.90
55091;DHT22;40985;53.180;5.800;2023-04-24T13:18:42;9.10;99.90
55091;DHT22;40985;53.180;5.800;2023-04-24T13:21:08;9.10;99.90
55091;DHT22;40985;53.180;5.800;2023-04-24T13:23:33;8.90;99.90
55091;DHT22;40985;53.180;5.800;2023-04-24T13:26:00;9.20;99.90
55091;DHT22;40985;53.180;5.800;2023-04-24T13:28:26;9.20;99.90
55091;DHT22;40985;53.180;5.800;2023-04-24T13:30:53;9.10;99.90
55091;DHT22;40985;53.180;5.800;2023-04-24T13:33:18;9.20;99.90
55091;DHT22;40985;53.180;5.800;2023-04-24T13:35:44;9.10;99.90
55091;DHT22;40985;53.180;5.800;2023-04-24T13:38:10;9.00;99.90
55091;DHT22;40985;53.180;5.800;2023-04-24T13:40:36;9.20;99.90
55091;DHT22;40985;53.180;5.800;2023-04-24T13:43:02;9.20;99.90
55091;DHT22;40985;53.180;5.800;2023-04-24T13:45:28;9.30;99.90
55091;DHT22;40985;53.180;5.800;2023-04-24T13:47:53;9.40;99.90
55091;DHT22;40985;53.180;5.800;2023-04-24T13:50:20;9.30;99.90
55091;DHT22;40985;53.180;5.800;2023-04-24T13:52:46;8.90;99.90
55091;DHT22;40985;53.180;5.800;2023-04-24T13:55:11;9.00;99.90
55091;DHT22;40985;53.180;5.800;2023-04-24T13:57:37;8.90;99.90
55091;DHT22;40985;53.180;5.800;2023-04-24T14:00:03;8.80;99.90
55091;DHT22;40985;53.180;5.800;2023-04-24T14:02:29;8.60;99.90
55091;DHT22;40985;53.180;5.800;2023-04-24T14:04:55;8.60;99.90
55091;DHT22;40985;53.180;5.800;2023-04-24T14:07:21;8.70;99.90
55091;DHT22;40985;53.180;5.800;2023-04-24T14:09:47;8.80;99.90
55091;DHT22;40985;53.180;5.800;2023-04-24T14:12:13;8.80;99.90
55091;DHT22;40985;53.180;5.800;2023-04-24T14:14:39;8.80;99.90
55091;DHT22;40985;53.180;5.800;2023-04-24T14:17:05;8.80;99.90
55091;DHT22;40985;53.180;5.800;2023-04-24T14:19:31;8.80;99.90
55091;DHT22;40985;53.180;5.800;2023-04-24T14:21:56;8.90;99.90
55091;DHT22;40985;53.180;5.800;2023-04-24T14:24:23;8.70;99.90
55091;DHT22;40985;53.180;5.800;2023-04-24T14:26:49;8.70;99.90
55091;DHT22;40985;53.180;5.800;2023-04-24T14:29:15;8.70;99.90
55091;DHT22;40985;53.180;5.800;2023-04-24T14:31:42;8.70;99.90
55091;DHT22;40985;53.180;5.800;2023-04-24T14:34:08;8.70;99.90
55091;DHT22;40985;53.180;5.800;2023-04-24T14:36:34;8.60;99.90
55091;DHT22;40985;53.180;5.800;2023-04-24T14:39:00;8.60;99.90
55091;DHT22;40985;53.180;5.800;2023-04-24T14:41:28;8.60;99.90
55091;DHT22;40985;53.180;5.800;2023-04-24T14:43:54;8.60;99.90
55091;DHT22;40985;53.180;5.800;2023-04-24T14:46:20;8.60;99.90
55091;DHT22;40985;53.180;5.800;2023-04-24T14:48:46;8.70;99.90
55091;DHT22;40985;53.180;5.800;2023-04-24T14:51:11;8.70;99.90
55091;DHT22;40985;53.180;5.800;2023-04-24T14:53:37;8.60;99.90
55091;DHT22;40985;53.180;5.800;2023-04-24T14:56:03;8.50;99.90
55091;DHT22;40985;53.180;5.800;2023-04-24T14:58:28;8.50;99.90
55091;DHT22;40985;53.180;5.800;2023-04-24T15:00:54;8.60;99.90
55091;DHT22;40985;53.180;5.800;2023-04-24T15:03:20;8.60;99.90
55091;DHT22;40985;53.180;5.800;2023-04-24T15:05:47;8.70;99.90
55091;DHT22;40985;53.180;5.800;2023-04-24T15:08:13;8.70;99.90
55091;DHT22;40985;53.180;5.800;2023-04-24T15:10:39;8.60;99.90
55091;DHT22;40985;53.180;5.800;2023-04-24T15:13:04;8.40;99.90
55091;DHT22;40985;53.180;5.800;2023-04-24T15:15:30;8.40;99.90
55091;DHT22;40985;53.180;5.800;2023-04-24T15:17:56;8.30;99.90
55091;DHT22;40985;53.180;5.800;2023-04-24T15:20:21;8.40;99.90
55091;DHT22;40985;53.180;5.800;2023-04-24T15:22:47;8.50;99.90
55091;DHT22;40985;53.180;5.800;2023-04-24T15:25:13;8.60;99.90
55091;DHT22;40985;53.180;5.800;2023-04-24T15:27:43;8.70;99.90
55091;DHT22;40985;53.180;5.800;2023-04-24T15:30:09;8.60;99.90
55091;DHT22;40985;53.180;5.800;2023-04-24T15:32:36;8.50;99.90
55091;DHT22;40985;53.180;5.800;2023-04-24T15:35:02;8.40;99.90
55091;DHT22;40985;53.180;5.800;2023-04-24T15:37:28;8.40;99.90
55091;DHT22;40985;53.180;5.800;2023-04-24T15:39:53;8.20;99.90
55091;DHT22;40985;53.180;5.800;2023-04-24T15:42:19;8.20;99.90
55091;DHT22;40985;53.180;5.800;2023-04-24T15:44:45;8.30;99.90
55091;DHT22;40985;53.180;5.800;2023-04-24T15:47:10;8.30;99.90